sensor_id;sensor_type;location;lat;lon;timestamp;P1;durP1;ratioP1;P2;durP2;ratioP2
42632;SDS011;28261;53.304;-6.284;2023-05-14T00:01:52;5.30;;;3.92;;
42632;SDS011;28261;53.304;-6.284;2023-05-14T00:03:56;4.22;;;3.38;;
42632;SDS011;28261;53.304;-6.284;2023-05-14T00:06:00;5.28;;;3.22;;
42632;SDS011;28261;53.304;-6.284;2023-05-14T00:08:04;5.30;;;3.60;;
42632;SDS011;28261;53.304;-6.284;2023-05-14T00:10:09;7.55;;;3.65;;
42632;SDS011;28261;53.304;-6.284;2023-05-14T00:12:13;7.63;;;3.63;;
42632;SDS011;28261;53.304;-6.284;2023-05-14T00:14:16;5.45;;;3.25;;
42632;SDS011;28261;53.304;-6.284;2023-05-14T00:16:20;5.15;;;3.50;;
42632;SDS011;28261;53.304;-6.284;2023-05-14T00:18:23;8.40;;;3.95;;
42632;SDS011;28261;53.304;-6.284;2023-05-14T00:20:27;7.07;;;3.85;;
42632;SDS011;28261;53.304;-6.284;2023-05-14T00:22:30;6.82;;;3.72;;
42632;SDS011;28261;53.304;-6.284;2023-05-14T00:24:34;7.70;;;4.15;;
42632;SDS011;28261;53.304;-6.284;2023-05-14T00:26:39;5.22;;;3.55;;
42632;SDS011;28261;53.304;-6.284;2023-05-14T00:30:46;5.10;;;3.78;;
42632;SDS011;28261;53.304;-6.284;2023-05-14T00:32:49;4.63;;;3.00;;
42632;SDS011;28261;53.304;-6.284;2023-05-14T00:34:53;5.43;;;4.00;;
42632;SDS011;28261;53.304;-6.284;2023-05-14T00:36:57;5.35;;;3.80;;
42632;SDS011;28261;53.304;-6.284;2023-05-14T00:39:01;6.03;;;4.35;;
42632;SDS011;28261;53.304;-6.284;2023-05-14T00:41:04;6.05;;;3.95;;
42632;SDS011;28261;53.304;-6.284;2023-05-14T00:43:09;5.22;;;3.35;;
42632;SDS011;28261;53.304;-6.284;2023-05-14T00:45:13;6.20;;;3.17;;
42632;SDS011;28261;53.304;-6.284;2023-05-14T00:47:17;7.80;;;3.63;;
42632;SDS011;28261;53.304;-6.284;2023-05-14T00:49:21;4.72;;;3.15;;
42632;SDS011;28261;53.304;-6.284;2023-05-14T00:51:25;5.70;;;3.00;;
42632;SDS011;28261;53.304;-6.284;2023-05-14T00:53:29;4.82;;;3.33;;
42632;SDS011;28261;53.304;-6.284;2023-05-14T00:55:32;4.47;;;2.80;;
42632;SDS011;28261;53.304;-6.284;2023-05-14T00:57:36;5.60;;;2.95;;
42632;SDS011;28261;53.304;-6.284;2023-05-14T00:59:41;5.20;;;3.10;;
42632;SDS011;28261;53.304;-6.284;2023-05-14T01:03:47;6.28;;;3.03;;
42632;SDS011;28261;53.304;-6.284;2023-05-14T01:05:55;5.38;;;3.45;;
42632;SDS011;28261;53.304;-6.284;2023-05-14T01:08:06;5.75;;;2.83;;
42632;SDS011;28261;53.304;-6.284;2023-05-14T01:10:16;5.05;;;2.88;;
42632;SDS011;28261;53.304;-6.284;2023-05-14T01:12:26;4.97;;;3.35;;
42632;SDS011;28261;53.304;-6.284;2023-05-14T01:16:44;4.43;;;2.58;;
42632;SDS011;28261;53.304;-6.284;2023-05-14T01:18:47;3.22;;;2.58;;
42632;SDS011;28261;53.304;-6.284;2023-05-14T01:20:53;4.82;;;3.00;;
42632;SDS011;28261;53.304;-6.284;2023-05-14T01:22:58;6.03;;;2.85;;
42632;SDS011;28261;53.304;-6.284;2023-05-14T01:25:01;3.53;;;2.80;;
42632;SDS011;28261;53.304;-6.284;2023-05-14T01:27:06;3.30;;;2.47;;
42632;SDS011;28261;53.304;-6.284;2023-05-14T01:29:17;3.45;;;2.20;;
42632;SDS011;28261;53.304;-6.284;2023-05-14T01:31:23;3.85;;;2.38;;
42632;SDS011;28261;53.304;-6.284;2023-05-14T01:33:30;3.92;;;2.83;;
42632;SDS011;28261;53.304;-6.284;2023-05-14T01:35:36;4.32;;;2.80;;
42632;SDS011;28261;53.304;-6.284;2023-05-14T01:37:41;4.43;;;2.35;;
42632;SDS011;28261;53.304;-6.284;2023-05-14T01:39:49;4.85;;;2.58;;
42632;SDS011;28261;53.304;-6.284;2023-05-14T01:41:54;5.20;;;3.05;;
42632;SDS011;28261;53.304;-6.284;2023-05-14T01:43:58;3.83;;;2.53;;
42632;SDS011;28261;53.304;-6.284;2023-05-14T01:46:01;6.68;;;2.92;;
42632;SDS011;28261;53.304;-6.284;2023-05-14T01:48:05;5.70;;;3.22;;
42632;SDS011;28261;53.304;-6.284;2023-05-14T01:50:10;5.13;;;3.13;;
42632;SDS011;28261;53.304;-6.284;2023-05-14T01:52:13;4.70;;;3.05;;
42632;SDS011;28261;53.304;-6.284;2023-05-14T01:54:17;8.98;;;4.50;;
42632;SDS011;28261;53.304;-6.284;2023-05-14T01:56:22;4.80;;;3.25;;
42632;SDS011;28261;53.304;-6.284;2023-05-14T01:58:26;4.80;;;3.67;;
42632;SDS011;28261;53.304;-6.284;2023-05-14T02:00:30;5.93;;;3.63;;
42632;SDS011;28261;53.304;-6.284;2023-05-14T02:02:33;5.85;;;3.65;;
42632;SDS011;28261;53.304;-6.284;2023-05-14T02:04:37;5.28;;;3.47;;
42632;SDS011;28261;53.304;-6.284;2023-05-14T02:06:40;7.72;;;3.85;;
42632;SDS011;28261;53.304;-6.284;2023-05-14T02:08:44;5.15;;;3.53;;
42632;SDS011;28261;53.304;-6.284;2023-05-14T02:10:47;6.88;;;3.80;;
42632;SDS011;28261;53.304;-6.284;2023-05-14T02:12:52;7.03;;;4.22;;
42632;SDS011;28261;53.304;-6.284;2023-05-14T02:14:56;6.18;;;3.33;;
42632;SDS011;28261;53.304;-6.284;2023-05-14T02:17:01;6.97;;;3.22;;
42632;SDS011;28261;53.304;-6.284;2023-05-14T02:19:05;5.07;;;3.30;;
42632;SDS011;28261;53.304;-6.284;2023-05-14T02:21:08;5.60;;;3.58;;
42632;SDS011;28261;53.304;-6.284;2023-05-14T02:23:12;7.28;;;3.28;;
42632;SDS011;28261;53.304;-6.284;2023-05-14T02:25:16;5.43;;;3.58;;
42632;SDS011;28261;53.304;-6.284;2023-05-14T02:27:20;4.97;;;3.63;;
42632;SDS011;28261;53.304;-6.284;2023-05-14T02:29:25;5.60;;;3.25;;
42632;SDS011;28261;53.304;-6.284;2023-05-14T02:31:28;8.40;;;3.47;;
42632;SDS011;28261;53.304;-6.284;2023-05-14T02:33:31;4.95;;;3.53;;
42632;SDS011;28261;53.304;-6.284;2023-05-14T02:35:35;5.63;;;3.78;;
42632;SDS011;28261;53.304;-6.284;2023-05-14T02:37:39;6.30;;;3.10;;
42632;SDS011;28261;53.304;-6.284;2023-05-14T02:39:42;4.22;;;3.05;;
42632;SDS011;28261;53.304;-6.284;2023-05-14T02:41:46;5.93;;;3.60;;
42632;SDS011;28261;53.304;-6.284;2023-05-14T02:43:50;7.13;;;3.47;;
42632;SDS011;28261;53.304;-6.284;2023-05-14T02:45:56;4.97;;;2.97;;
42632;SDS011;28261;53.304;-6.284;2023-05-14T02:47:59;4.72;;;3.03;;
42632;SDS011;28261;53.304;-6.284;2023-05-14T02:50:04;4.80;;;2.78;;
42632;SDS011;28261;53.304;-6.284;2023-05-14T02:52:09;4.78;;;3.03;;
42632;SDS011;28261;53.304;-6.284;2023-05-14T02:54:12;5.70;;;3.08;;
42632;SDS011;28261;53.304;-6.284;2023-05-14T02:56:17;5.22;;;3.42;;
42632;SDS011;28261;53.304;-6.284;2023-05-14T02:58:20;5.10;;;3.08;;
42632;SDS011;28261;53.304;-6.284;2023-05-14T03:00:29;5.82;;;3.17;;
42632;SDS011;28261;53.304;-6.284;2023-05-14T03:02:34;5.88;;;3.53;;
42632;SDS011;28261;53.304;-6.284;2023-05-14T03:04:38;4.60;;;3.83;;
42632;SDS011;28261;53.304;-6.284;2023-05-14T03:06:42;4.47;;;3.33;;
42632;SDS011;28261;53.304;-6.284;2023-05-14T03:08:45;6.05;;;2.88;;
42632;SDS011;28261;53.304;-6.284;2023-05-14T03:10:48;4.53;;;3.20;;
42632;SDS011;28261;53.304;-6.284;2023-05-14T03:12:52;4.97;;;3.08;;
42632;SDS011;28261;53.304;-6.284;2023-05-14T03:14:56;4.88;;;3.22;;
42632;SDS011;28261;53.304;-6.284;2023-05-14T03:16:59;6.18;;;3.25;;
42632;SDS011;28261;53.304;-6.284;2023-05-14T03:19:04;4.13;;;2.72;;
42632;SDS011;28261;53.304;-6.284;2023-05-14T03:23:11;7.32;;;3.42;;
42632;SDS011;28261;53.304;-6.284;2023-05-14T03:25:15;5.53;;;3.22;;
42632;SDS011;28261;53.304;-6.284;2023-05-14T03:27:19;4.95;;;3.17;;
42632;SDS011;28261;53.304;-6.284;2023-05-14T03:29:22;5.45;;;3.63;;
42632;SDS011;28261;53.304;-6.284;2023-05-14T03:31:26;6.88;;;3.33;;
42632;SDS011;28261;53.304;-6.284;2023-05-14T03:33:30;4.78;;;3.10;;
42632;SDS011;28261;53.304;-6.284;2023-05-14T03:35:35;5.30;;;3.15;;
42632;SDS011;28261;53.304;-6.284;2023-05-14T03:39:41;4.40;;;3.15;;
42632;SDS011;28261;53.304;-6.284;2023-05-14T03:41:45;5.63;;;3.03;;
42632;SDS011;28261;53.304;-6.284;2023-05-14T03:43:48;6.75;;;3.78;;
42632;SDS011;28261;53.304;-6.284;2023-05-14T03:45:52;4.75;;;3.58;;
42632;SDS011;28261;53.304;-6.284;2023-05-14T03:47:56;4.90;;;3.13;;
42632;SDS011;28261;53.304;-6.284;2023-05-14T03:50:00;4.82;;;3.47;;
42632;SDS011;28261;53.304;-6.284;2023-05-14T03:52:06;4.47;;;2.97;;
42632;SDS011;28261;53.304;-6.284;2023-05-14T03:56:12;4.63;;;2.95;;
42632;SDS011;28261;53.304;-6.284;2023-05-14T03:58:16;5.38;;;3.08;;
42632;SDS011;28261;53.304;-6.284;2023-05-14T04:00:20;4.10;;;3.13;;
42632;SDS011;28261;53.304;-6.284;2023-05-14T04:02:25;5.18;;;3.25;;
42632;SDS011;28261;53.304;-6.284;2023-05-14T04:04:29;4.85;;;3.35;;
42632;SDS011;28261;53.304;-6.284;2023-05-14T04:06:32;4.85;;;3.30;;
42632;SDS011;28261;53.304;-6.284;2023-05-14T04:08:37;5.07;;;3.22;;
42632;SDS011;28261;53.304;-6.284;2023-05-14T04:10:41;6.20;;;3.00;;
42632;SDS011;28261;53.304;-6.284;2023-05-14T04:12:45;3.50;;;2.92;;
42632;SDS011;28261;53.304;-6.284;2023-05-14T04:14:48;7.35;;;3.65;;
42632;SDS011;28261;53.304;-6.284;2023-05-14T04:16:52;4.85;;;3.10;;
42632;SDS011;28261;53.304;-6.284;2023-05-14T04:18:55;6.22;;;3.40;;
42632;SDS011;28261;53.304;-6.284;2023-05-14T04:20:59;6.47;;;3.50;;
42632;SDS011;28261;53.304;-6.284;2023-05-14T04:23:02;4.40;;;3.35;;
42632;SDS011;28261;53.304;-6.284;2023-05-14T04:25:07;5.15;;;3.15;;
42632;SDS011;28261;53.304;-6.284;2023-05-14T04:27:13;5.50;;;3.38;;
42632;SDS011;28261;53.304;-6.284;2023-05-14T04:29:21;4.35;;;2.97;;
42632;SDS011;28261;53.304;-6.284;2023-05-14T04:31:25;4.90;;;3.30;;
42632;SDS011;28261;53.304;-6.284;2023-05-14T04:33:28;4.25;;;2.97;;
42632;SDS011;28261;53.304;-6.284;2023-05-14T04:35:32;4.95;;;3.90;;
42632;SDS011;28261;53.304;-6.284;2023-05-14T04:37:35;4.50;;;3.20;;
42632;SDS011;28261;53.304;-6.284;2023-05-14T04:39:38;5.07;;;3.75;;
42632;SDS011;28261;53.304;-6.284;2023-05-14T04:41:43;6.15;;;2.67;;
42632;SDS011;28261;53.304;-6.284;2023-05-14T04:43:48;6.68;;;3.60;;
42632;SDS011;28261;53.304;-6.284;2023-05-14T04:45:52;6.55;;;3.70;;
42632;SDS011;28261;53.304;-6.284;2023-05-14T04:47:55;6.10;;;3.97;;
42632;SDS011;28261;53.304;-6.284;2023-05-14T04:49:59;4.88;;;3.17;;
42632;SDS011;28261;53.304;-6.284;2023-05-14T04:52:02;5.75;;;3.38;;
42632;SDS011;28261;53.304;-6.284;2023-05-14T04:54:06;6.20;;;3.35;;
42632;SDS011;28261;53.304;-6.284;2023-05-14T04:56:09;4.97;;;3.08;;
42632;SDS011;28261;53.304;-6.284;2023-05-14T04:58:14;4.25;;;2.90;;
42632;SDS011;28261;53.304;-6.284;2023-05-14T05:00:18;7.20;;;3.70;;
42632;SDS011;28261;53.304;-6.284;2023-05-14T05:02:23;6.90;;;3.58;;
42632;SDS011;28261;53.304;-6.284;2023-05-14T05:04:26;6.32;;;3.53;;
42632;SDS011;28261;53.304;-6.284;2023-05-14T05:06:30;5.78;;;3.80;;
42632;SDS011;28261;53.304;-6.284;2023-05-14T05:08:33;4.68;;;3.55;;
42632;SDS011;28261;53.304;-6.284;2023-05-14T05:10:36;5.00;;;3.83;;
42632;SDS011;28261;53.304;-6.284;2023-05-14T05:12:40;6.15;;;3.30;;
42632;SDS011;28261;53.304;-6.284;2023-05-14T05:14:45;7.95;;;4.53;;
42632;SDS011;28261;53.304;-6.284;2023-05-14T05:18:52;7.55;;;3.47;;
42632;SDS011;28261;53.304;-6.284;2023-05-14T05:20:56;6.68;;;3.85;;
42632;SDS011;28261;53.304;-6.284;2023-05-14T05:22:59;4.68;;;3.35;;
42632;SDS011;28261;53.304;-6.284;2023-05-14T05:25:03;8.05;;;4.57;;
42632;SDS011;28261;53.304;-6.284;2023-05-14T05:27:08;6.00;;;3.83;;
42632;SDS011;28261;53.304;-6.284;2023-05-14T05:29:11;5.47;;;3.63;;
42632;SDS011;28261;53.304;-6.284;2023-05-14T05:31:16;5.53;;;4.15;;
42632;SDS011;28261;53.304;-6.284;2023-05-14T05:33:20;8.65;;;3.72;;
42632;SDS011;28261;53.304;-6.284;2023-05-14T05:35:24;6.53;;;3.80;;
42632;SDS011;28261;53.304;-6.284;2023-05-14T05:37:28;5.28;;;3.85;;
42632;SDS011;28261;53.304;-6.284;2023-05-14T05:39:32;5.43;;;3.53;;
42632;SDS011;28261;53.304;-6.284;2023-05-14T05:41:36;5.28;;;3.80;;
42632;SDS011;28261;53.304;-6.284;2023-05-14T05:43:39;6.40;;;4.65;;
42632;SDS011;28261;53.304;-6.284;2023-05-14T05:45:43;5.35;;;3.70;;
42632;SDS011;28261;53.304;-6.284;2023-05-14T05:47:48;9.30;;;3.75;;
42632;SDS011;28261;53.304;-6.284;2023-05-14T05:49:52;5.70;;;3.90;;
42632;SDS011;28261;53.304;-6.284;2023-05-14T05:51:55;6.72;;;4.18;;
42632;SDS011;28261;53.304;-6.284;2023-05-14T05:53:59;5.78;;;3.72;;
42632;SDS011;28261;53.304;-6.284;2023-05-14T05:56:03;6.75;;;4.00;;
42632;SDS011;28261;53.304;-6.284;2023-05-14T05:58:06;7.57;;;5.60;;
42632;SDS011;28261;53.304;-6.284;2023-05-14T06:00:10;6.65;;;5.00;;
42632;SDS011;28261;53.304;-6.284;2023-05-14T06:02:15;5.75;;;4.03;;
42632;SDS011;28261;53.304;-6.284;2023-05-14T06:04:20;6.90;;;4.15;;
42632;SDS011;28261;53.304;-6.284;2023-05-14T06:06:23;6.57;;;3.72;;
42632;SDS011;28261;53.304;-6.284;2023-05-14T06:08:26;11.10;;;4.03;;
42632;SDS011;28261;53.304;-6.284;2023-05-14T06:10:30;5.65;;;4.03;;
42632;SDS011;28261;53.304;-6.284;2023-05-14T06:12:33;6.70;;;3.95;;
42632;SDS011;28261;53.304;-6.284;2023-05-14T06:14:37;7.57;;;4.38;;
42632;SDS011;28261;53.304;-6.284;2023-05-14T06:16:40;5.43;;;3.35;;
42632;SDS011;28261;53.304;-6.284;2023-05-14T06:18:43;8.02;;;4.10;;
42632;SDS011;28261;53.304;-6.284;2023-05-14T06:20:49;6.88;;;4.43;;
42632;SDS011;28261;53.304;-6.284;2023-05-14T06:22:52;6.07;;;4.57;;
42632;SDS011;28261;53.304;-6.284;2023-05-14T06:24:56;6.32;;;4.30;;
42632;SDS011;28261;53.304;-6.284;2023-05-14T06:26:59;6.97;;;4.22;;
42632;SDS011;28261;53.304;-6.284;2023-05-14T06:29:02;6.30;;;3.53;;
42632;SDS011;28261;53.304;-6.284;2023-05-14T06:31:06;5.22;;;3.72;;
42632;SDS011;28261;53.304;-6.284;2023-05-14T06:33:10;6.72;;;4.20;;
42632;SDS011;28261;53.304;-6.284;2023-05-14T06:35:16;9.15;;;3.97;;
42632;SDS011;28261;53.304;-6.284;2023-05-14T06:37:21;5.60;;;3.55;;
42632;SDS011;28261;53.304;-6.284;2023-05-14T06:39:24;4.82;;;3.80;;
42632;SDS011;28261;53.304;-6.284;2023-05-14T06:41:28;8.55;;;3.95;;
42632;SDS011;28261;53.304;-6.284;2023-05-14T06:43:32;6.50;;;4.10;;
42632;SDS011;28261;53.304;-6.284;2023-05-14T06:45:35;6.50;;;4.15;;
42632;SDS011;28261;53.304;-6.284;2023-05-14T06:47:38;8.07;;;3.67;;
42632;SDS011;28261;53.304;-6.284;2023-05-14T06:49:42;5.10;;;3.30;;
42632;SDS011;28261;53.304;-6.284;2023-05-14T06:51:46;6.63;;;3.58;;
42632;SDS011;28261;53.304;-6.284;2023-05-14T06:53:51;5.75;;;3.42;;
42632;SDS011;28261;53.304;-6.284;2023-05-14T06:55:55;3.63;;;2.58;;
42632;SDS011;28261;53.304;-6.284;2023-05-14T06:57:59;4.10;;;2.90;;
42632;SDS011;28261;53.304;-6.284;2023-05-14T07:00:03;6.50;;;3.15;;
42632;SDS011;28261;53.304;-6.284;2023-05-14T07:02:07;4.97;;;2.75;;
42632;SDS011;28261;53.304;-6.284;2023-05-14T07:04:11;3.45;;;2.65;;
42632;SDS011;28261;53.304;-6.284;2023-05-14T07:06:14;4.63;;;3.10;;
42632;SDS011;28261;53.304;-6.284;2023-05-14T07:08:18;3.97;;;2.47;;
42632;SDS011;28261;53.304;-6.284;2023-05-14T07:10:23;4.45;;;2.13;;
42632;SDS011;28261;53.304;-6.284;2023-05-14T07:12:27;4.45;;;2.35;;
42632;SDS011;28261;53.304;-6.284;2023-05-14T07:14:31;3.58;;;2.70;;
42632;SDS011;28261;53.304;-6.284;2023-05-14T07:16:35;4.60;;;2.33;;
42632;SDS011;28261;53.304;-6.284;2023-05-14T07:18:39;4.82;;;2.30;;
42632;SDS011;28261;53.304;-6.284;2023-05-14T07:20:42;4.25;;;2.50;;
42632;SDS011;28261;53.304;-6.284;2023-05-14T07:22:45;4.68;;;2.40;;
42632;SDS011;28261;53.304;-6.284;2023-05-14T07:24:49;3.42;;;2.20;;
42632;SDS011;28261;53.304;-6.284;2023-05-14T07:26:53;3.28;;;2.92;;
42632;SDS011;28261;53.304;-6.284;2023-05-14T07:28:57;3.33;;;2.20;;
42632;SDS011;28261;53.304;-6.284;2023-05-14T07:31:01;3.08;;;2.42;;
42632;SDS011;28261;53.304;-6.284;2023-05-14T07:33:05;4.03;;;3.05;;
42632;SDS011;28261;53.304;-6.284;2023-05-14T07:35:09;5.60;;;2.42;;
42632;SDS011;28261;53.304;-6.284;2023-05-14T07:37:13;3.25;;;2.53;;
42632;SDS011;28261;53.304;-6.284;2023-05-14T07:39:17;5.53;;;2.67;;
42632;SDS011;28261;53.304;-6.284;2023-05-14T07:41:20;3.00;;;2.13;;
42632;SDS011;28261;53.304;-6.284;2023-05-14T07:43:25;4.13;;;1.95;;
42632;SDS011;28261;53.304;-6.284;2023-05-14T07:45:29;4.90;;;2.67;;
42632;SDS011;28261;53.304;-6.284;2023-05-14T07:47:32;3.00;;;2.05;;
42632;SDS011;28261;53.304;-6.284;2023-05-14T07:49:36;4.65;;;2.13;;
42632;SDS011;28261;53.304;-6.284;2023-05-14T07:51:39;3.05;;;2.55;;
42632;SDS011;28261;53.304;-6.284;2023-05-14T07:53:43;3.72;;;2.15;;
42632;SDS011;28261;53.304;-6.284;2023-05-14T07:55:47;2.53;;;2.15;;
42632;SDS011;28261;53.304;-6.284;2023-05-14T07:57:51;3.50;;;2.25;;
42632;SDS011;28261;53.304;-6.284;2023-05-14T07:59:56;4.15;;;1.60;;
42632;SDS011;28261;53.304;-6.284;2023-05-14T08:01:59;3.88;;;1.92;;
42632;SDS011;28261;53.304;-6.284;2023-05-14T08:04:03;2.83;;;2.10;;
42632;SDS011;28261;53.304;-6.284;2023-05-14T08:06:06;2.40;;;1.95;;
42632;SDS011;28261;53.304;-6.284;2023-05-14T08:08:10;1.92;;;1.73;;
42632;SDS011;28261;53.304;-6.284;2023-05-14T08:10:14;3.30;;;1.60;;
42632;SDS011;28261;53.304;-6.284;2023-05-14T08:12:18;2.20;;;1.52;;
42632;SDS011;28261;53.304;-6.284;2023-05-14T08:14:21;3.22;;;1.85;;
42632;SDS011;28261;53.304;-6.284;2023-05-14T08:16:26;2.35;;;1.63;;
42632;SDS011;28261;53.304;-6.284;2023-05-14T08:18:30;2.20;;;1.70;;
42632;SDS011;28261;53.304;-6.284;2023-05-14T08:20:34;3.33;;;2.30;;
42632;SDS011;28261;53.304;-6.284;2023-05-14T08:22:38;3.85;;;2.00;;
42632;SDS011;28261;53.304;-6.284;2023-05-14T08:24:42;2.65;;;1.80;;
42632;SDS011;28261;53.304;-6.284;2023-05-14T08:26:47;4.13;;;1.92;;
42632;SDS011;28261;53.304;-6.284;2023-05-14T08:30:57;2.72;;;1.80;;
42632;SDS011;28261;53.304;-6.284;2023-05-14T08:33:04;5.05;;;2.10;;
42632;SDS011;28261;53.304;-6.284;2023-05-14T08:35:09;2.75;;;1.92;;
42632;SDS011;28261;53.304;-6.284;2023-05-14T08:37:13;2.72;;;1.67;;
42632;SDS011;28261;53.304;-6.284;2023-05-14T08:39:18;3.42;;;2.60;;
42632;SDS011;28261;53.304;-6.284;2023-05-14T08:41:22;6.15;;;2.17;;
42632;SDS011;28261;53.304;-6.284;2023-05-14T08:43:29;3.85;;;2.05;;
42632;SDS011;28261;53.304;-6.284;2023-05-14T08:45:40;3.40;;;1.75;;
42632;SDS011;28261;53.304;-6.284;2023-05-14T08:47:46;2.40;;;1.42;;
42632;SDS011;28261;53.304;-6.284;2023-05-14T08:49:56;2.30;;;1.83;;
42632;SDS011;28261;53.304;-6.284;2023-05-14T08:52:05;2.63;;;1.40;;
42632;SDS011;28261;53.304;-6.284;2023-05-14T08:54:10;2.95;;;1.52;;
42632;SDS011;28261;53.304;-6.284;2023-05-14T08:56:18;3.95;;;1.98;;
42632;SDS011;28261;53.304;-6.284;2023-05-14T08:58:24;3.20;;;1.40;;
42632;SDS011;28261;53.304;-6.284;2023-05-14T09:00:31;4.72;;;1.30;;
42632;SDS011;28261;53.304;-6.284;2023-05-14T09:02:36;2.55;;;1.58;;
42632;SDS011;28261;53.304;-6.284;2023-05-14T09:04:41;1.73;;;1.23;;
42632;SDS011;28261;53.304;-6.284;2023-05-14T09:06:48;2.10;;;1.08;;
42632;SDS011;28261;53.304;-6.284;2023-05-14T09:08:53;2.85;;;1.10;;
42632;SDS011;28261;53.304;-6.284;2023-05-14T09:10:58;1.88;;;1.23;;
42632;SDS011;28261;53.304;-6.284;2023-05-14T09:13:03;2.15;;;1.35;;
42632;SDS011;28261;53.304;-6.284;2023-05-14T09:15:09;2.05;;;1.50;;
42632;SDS011;28261;53.304;-6.284;2023-05-14T09:17:14;3.08;;;1.40;;
42632;SDS011;28261;53.304;-6.284;2023-05-14T09:19:19;2.55;;;1.05;;
42632;SDS011;28261;53.304;-6.284;2023-05-14T09:21:24;1.95;;;1.30;;
42632;SDS011;28261;53.304;-6.284;2023-05-14T09:23:32;2.47;;;1.38;;
42632;SDS011;28261;53.304;-6.284;2023-05-14T09:25:36;3.08;;;1.52;;
42632;SDS011;28261;53.304;-6.284;2023-05-14T09:27:41;2.97;;;1.58;;
42632;SDS011;28261;53.304;-6.284;2023-05-14T09:29:51;3.75;;;1.50;;
42632;SDS011;28261;53.304;-6.284;2023-05-14T09:31:55;3.42;;;1.30;;
42632;SDS011;28261;53.304;-6.284;2023-05-14T09:34:03;2.75;;;1.50;;
42632;SDS011;28261;53.304;-6.284;2023-05-14T09:36:08;1.73;;;1.35;;
42632;SDS011;28261;53.304;-6.284;2023-05-14T09:38:14;1.63;;;1.00;;
42632;SDS011;28261;53.304;-6.284;2023-05-14T09:40:22;1.52;;;0.85;;
42632;SDS011;28261;53.304;-6.284;2023-05-14T09:42:29;1.67;;;1.00;;
42632;SDS011;28261;53.304;-6.284;2023-05-14T09:44:34;3.47;;;1.17;;
42632;SDS011;28261;53.304;-6.284;2023-05-14T09:46:40;1.60;;;1.02;;
42632;SDS011;28261;53.304;-6.284;2023-05-14T09:48:46;1.63;;;0.88;;
42632;SDS011;28261;53.304;-6.284;2023-05-14T09:50:50;1.40;;;1.13;;
42632;SDS011;28261;53.304;-6.284;2023-05-14T09:52:56;1.90;;;1.02;;
42632;SDS011;28261;53.304;-6.284;2023-05-14T09:55:03;0.98;;;0.68;;
42632;SDS011;28261;53.304;-6.284;2023-05-14T09:57:11;1.45;;;0.50;;
42632;SDS011;28261;53.304;-6.284;2023-05-14T09:59:15;1.55;;;1.00;;
42632;SDS011;28261;53.304;-6.284;2023-05-14T10:01:21;0.88;;;0.40;;
42632;SDS011;28261;53.304;-6.284;2023-05-14T10:03:28;0.73;;;0.73;;
42632;SDS011;28261;53.304;-6.284;2023-05-14T10:05:36;1.20;;;0.75;;
42632;SDS011;28261;53.304;-6.284;2023-05-14T10:07:45;2.08;;;0.60;;
42632;SDS011;28261;53.304;-6.284;2023-05-14T10:09:53;1.23;;;0.55;;
42632;SDS011;28261;53.304;-6.284;2023-05-14T10:12:02;1.30;;;0.90;;
42632;SDS011;28261;53.304;-6.284;2023-05-14T10:14:10;3.92;;;1.73;;
42632;SDS011;28261;53.304;-6.284;2023-05-14T10:16:21;0.55;;;0.55;;
42632;SDS011;28261;53.304;-6.284;2023-05-14T10:18:31;0.73;;;0.73;;
42632;SDS011;28261;53.304;-6.284;2023-05-14T10:20:45;1.02;;;0.93;;
42632;SDS011;28261;53.304;-6.284;2023-05-14T10:22:51;0.77;;;0.40;;
42632;SDS011;28261;53.304;-6.284;2023-05-14T10:24:57;0.40;;;0.40;;
42632;SDS011;28261;53.304;-6.284;2023-05-14T10:27:02;1.73;;;0.85;;
42632;SDS011;28261;53.304;-6.284;2023-05-14T10:29:12;0.43;;;0.40;;
42632;SDS011;28261;53.304;-6.284;2023-05-14T10:31:19;0.63;;;0.63;;
42632;SDS011;28261;53.304;-6.284;2023-05-14T10:33:26;1.50;;;0.70;;
42632;SDS011;28261;53.304;-6.284;2023-05-14T10:37:54;0.98;;;0.80;;
42632;SDS011;28261;53.304;-6.284;2023-05-14T10:40:01;1.77;;;0.95;;
42632;SDS011;28261;53.304;-6.284;2023-05-14T10:42:09;1.60;;;0.70;;
42632;SDS011;28261;53.304;-6.284;2023-05-14T10:44:23;1.35;;;0.95;;
42632;SDS011;28261;53.304;-6.284;2023-05-14T10:46:27;0.80;;;0.80;;
42632;SDS011;28261;53.304;-6.284;2023-05-14T10:48:34;1.13;;;0.95;;
42632;SDS011;28261;53.304;-6.284;2023-05-14T10:50:40;1.33;;;0.82;;
42632;SDS011;28261;53.304;-6.284;2023-05-14T10:52:46;1.38;;;0.82;;
42632;SDS011;28261;53.304;-6.284;2023-05-14T10:54:51;1.27;;;0.93;;
42632;SDS011;28261;53.304;-6.284;2023-05-14T10:56:59;0.75;;;0.70;;
42632;SDS011;28261;53.304;-6.284;2023-05-14T10:59:12;1.60;;;0.82;;
42632;SDS011;28261;53.304;-6.284;2023-05-14T11:01:20;1.77;;;0.85;;
42632;SDS011;28261;53.304;-6.284;2023-05-14T11:03:29;1.45;;;0.95;;
42632;SDS011;28261;53.304;-6.284;2023-05-14T11:05:36;1.60;;;0.77;;
42632;SDS011;28261;53.304;-6.284;2023-05-14T11:07:46;1.45;;;0.80;;
42632;SDS011;28261;53.304;-6.284;2023-05-14T11:09:52;1.58;;;0.88;;
42632;SDS011;28261;53.304;-6.284;2023-05-14T11:12:00;1.45;;;1.30;;
42632;SDS011;28261;53.304;-6.284;2023-05-14T11:16:11;1.27;;;0.98;;
42632;SDS011;28261;53.304;-6.284;2023-05-14T11:18:27;1.60;;;1.33;;
42632;SDS011;28261;53.304;-6.284;2023-05-14T11:20:32;1.92;;;1.02;;
42632;SDS011;28261;53.304;-6.284;2023-05-14T11:22:39;1.50;;;1.23;;
42632;SDS011;28261;53.304;-6.284;2023-05-14T11:24:45;1.77;;;1.20;;
42632;SDS011;28261;53.304;-6.284;2023-05-14T11:26:50;1.02;;;0.93;;
42632;SDS011;28261;53.304;-6.284;2023-05-14T11:28:57;0.93;;;0.82;;
42632;SDS011;28261;53.304;-6.284;2023-05-14T11:31:01;1.35;;;1.25;;
42632;SDS011;28261;53.304;-6.284;2023-05-14T11:33:06;1.20;;;1.10;;
42632;SDS011;28261;53.304;-6.284;2023-05-14T11:35:13;1.20;;;1.10;;
42632;SDS011;28261;53.304;-6.284;2023-05-14T11:37:17;1.05;;;0.95;;
42632;SDS011;28261;53.304;-6.284;2023-05-14T11:39:22;1.25;;;0.82;;
42632;SDS011;28261;53.304;-6.284;2023-05-14T11:41:26;1.33;;;0.98;;
42632;SDS011;28261;53.304;-6.284;2023-05-14T11:43:33;1.10;;;0.90;;
42632;SDS011;28261;53.304;-6.284;2023-05-14T11:45:39;1.58;;;1.02;;
42632;SDS011;28261;53.304;-6.284;2023-05-14T11:47:44;1.10;;;0.95;;
42632;SDS011;28261;53.304;-6.284;2023-05-14T11:49:49;2.45;;;1.52;;
42632;SDS011;28261;53.304;-6.284;2023-05-14T11:51:58;1.25;;;1.02;;
42632;SDS011;28261;53.304;-6.284;2023-05-14T11:54:03;1.05;;;0.80;;
42632;SDS011;28261;53.304;-6.284;2023-05-14T11:56:08;1.27;;;0.98;;
42632;SDS011;28261;53.304;-6.284;2023-05-14T11:58:13;2.80;;;1.13;;
42632;SDS011;28261;53.304;-6.284;2023-05-14T12:00:19;2.75;;;1.02;;
42632;SDS011;28261;53.304;-6.284;2023-05-14T12:02:26;1.23;;;1.10;;
42632;SDS011;28261;53.304;-6.284;2023-05-14T12:04:31;2.92;;;1.10;;
42632;SDS011;28261;53.304;-6.284;2023-05-14T12:06:37;3.03;;;1.40;;
42632;SDS011;28261;53.304;-6.284;2023-05-14T12:08:42;1.40;;;1.00;;
42632;SDS011;28261;53.304;-6.284;2023-05-14T12:10:47;3.13;;;1.50;;
42632;SDS011;28261;53.304;-6.284;2023-05-14T12:12:51;2.83;;;1.27;;
42632;SDS011;28261;53.304;-6.284;2023-05-14T12:14:58;1.92;;;1.23;;
42632;SDS011;28261;53.304;-6.284;2023-05-14T12:17:02;3.28;;;1.02;;
42632;SDS011;28261;53.304;-6.284;2023-05-14T12:19:15;1.92;;;1.27;;
42632;SDS011;28261;53.304;-6.284;2023-05-14T12:21:21;2.45;;;1.10;;
42632;SDS011;28261;53.304;-6.284;2023-05-14T12:23:25;1.98;;;1.27;;
42632;SDS011;28261;53.304;-6.284;2023-05-14T12:27:36;1.40;;;0.90;;
42632;SDS011;28261;53.304;-6.284;2023-05-14T12:29:41;1.45;;;1.13;;
42632;SDS011;28261;53.304;-6.284;2023-05-14T12:31:46;15.93;;;7.65;;
42632;SDS011;28261;53.304;-6.284;2023-05-14T12:33:52;2.80;;;1.23;;
42632;SDS011;28261;53.304;-6.284;2023-05-14T12:36:00;3.75;;;1.02;;
42632;SDS011;28261;53.304;-6.284;2023-05-14T12:38:22;1.40;;;0.68;;
42632;SDS011;28261;53.304;-6.284;2023-05-14T12:40:27;0.93;;;0.82;;
42632;SDS011;28261;53.304;-6.284;2023-05-14T12:42:36;1.17;;;0.90;;
42632;SDS011;28261;53.304;-6.284;2023-05-14T12:44:41;1.45;;;0.85;;